createdAt,value
2022-07-28T00:00:01.038Z,17.74
2022-07-28T00:02:28.038Z,17.23
2022-07-28T00:04:54.675Z,18.00
2022-07-28T00:07:21.173Z,18.05
2022-07-28T00:09:47.661Z,18.36
2022-07-28T00:12:14.451Z,18.51
2022-07-28T00:14:41.263Z,18.12
2022-07-28T00:17:07.873Z,18.61
2022-07-28T00:19:34.557Z,18.56
2022-07-28T00:22:02.529Z,18.45
2022-07-28T00:24:29.330Z,18.02
2022-07-28T00:26:55.781Z,18.42
2022-07-28T00:29:22.241Z,18.43
2022-07-28T00:31:48.764Z,18.16
2022-07-28T00:34:15.577Z,18.44
2022-07-28T00:36:42.283Z,18.39
2022-07-28T00:39:08.843Z,18.00
2022-07-28T00:41:36.499Z,18.12
2022-07-28T00:44:06.344Z,18.16
2022-07-28T00:46:33.206Z,18.00
2022-07-28T00:48:59.845Z,17.86
2022-07-28T00:51:27.456Z,18.04
2022-07-28T00:53:54.955Z,18.09
2022-07-28T00:56:22.103Z,18.07
2022-07-28T00:58:48.991Z,17.98
2022-07-28T01:01:19.643Z,17.17
2022-07-28T01:03:56.040Z,17.71
2022-07-28T01:06:31.686Z,17.79
2022-07-28T01:09:11.411Z,17.68
2022-07-28T01:11:48.607Z,17.09
2022-07-28T01:14:23.975Z,17.53
2022-07-28T01:17:01.961Z,17.63
2022-07-28T01:19:48.974Z,17.47
2022-07-28T01:22:22.202Z,17.37
2022-07-28T01:25:07.268Z,17.36
2022-07-28T01:28:06.028Z,17.09
2022-07-28T01:30:45.966Z,17.08
2022-07-28T01:33:19.125Z,17.23
2022-07-28T01:35:51.423Z,17.30
2022-07-28T01:38:19.984Z,17.26
2022-07-28T01:40:50.343Z,16.41
2022-07-28T01:43:21.605Z,16.69
2022-07-28T01:45:48.086Z,16.57
2022-07-28T01:48:17.291Z,16.94
2022-07-28T01:50:48.851Z,16.94
2022-07-28T01:53:16.808Z,17.06
2022-07-28T01:55:44.713Z,16.97
2022-07-28T01:58:13.851Z,16.73
2022-07-28T02:00:42.793Z,16.52
2022-07-28T02:03:11.734Z,16.20
2022-07-28T02:05:41.367Z,16.25
2022-07-28T02:08:08.986Z,16.43
2022-07-28T02:10:37.566Z,16.70
2022-07-28T02:13:04.374Z,16.64
2022-07-28T02:15:32.480Z,16.73
2022-07-28T02:18:00.401Z,16.64
2022-07-28T02:20:28.285Z,16.58
2022-07-28T02:22:56.273Z,16.53
2022-07-28T02:25:23.032Z,16.45
2022-07-28T02:27:58.220Z,15.82
2022-07-28T02:30:31.971Z,15.21
2022-07-28T02:33:05.666Z,15.84
2022-07-28T02:35:53.328Z,16.19
2022-07-28T02:38:35.191Z,15.94
2022-07-28T02:41:13.099Z,16.04
2022-07-28T02:43:49.333Z,15.51
2022-07-28T02:46:21.981Z,15.55
2022-07-28T02:48:52.913Z,15.62
2022-07-28T02:51:23.496Z,15.41
2022-07-28T02:53:51.030Z,14.43
2022-07-28T02:56:18.235Z,14.03
2022-07-28T02:58:45.784Z,13.74
2022-07-28T03:01:12.754Z,13.94
2022-07-28T03:03:43.972Z,14.42
2022-07-28T03:06:10.933Z,15.26
2022-07-28T03:08:37.473Z,15.54
2022-07-28T03:11:12.119Z,15.22
2022-07-28T03:13:39.891Z,14.96
2022-07-28T03:16:07.379Z,15.23
2022-07-28T03:18:33.890Z,15.50
2022-07-28T03:21:00.742Z,15.64
2022-07-28T03:23:41.782Z,15.22
2022-07-28T03:26:15.470Z,14.77
2022-07-28T03:28:43.782Z,15.20
2022-07-28T03:31:12.202Z,15.55
2022-07-28T03:33:39.076Z,15.58
2022-07-28T03:36:09.228Z,15.36
2022-07-28T03:38:43.728Z,15.08
2022-07-28T03:41:11.369Z,15.66
2022-07-28T03:43:39.191Z,15.57
2022-07-28T03:46:12.824Z,15.64
2022-07-28T03:48:39.981Z,15.57
2022-07-28T03:51:06.508Z,15.58
2022-07-28T03:53:33.207Z,15.74
2022-07-28T03:55:59.686Z,15.72
2022-07-28T03:58:28.907Z,15.59
2022-07-28T04:00:56.108Z,15.31
2022-07-28T04:03:36.487Z,15.70
2022-07-28T04:06:09.152Z,15.67
2022-07-28T04:08:35.700Z,15.81
2022-07-28T04:11:02.209Z,15.95
2022-07-28T04:13:28.923Z,15.72
2022-07-28T04:15:55.376Z,15.52
2022-07-28T04:18:22.035Z,15.93
2022-07-28T04:20:48.698Z,15.67
2022-07-28T04:23:15.185Z,16.01
2022-07-28T04:25:41.781Z,16.31
2022-07-28T04:28:08.333Z,16.25
2022-07-28T04:30:34.986Z,16.23
2022-07-28T04:33:10.197Z,16.12
2022-07-28T04:35:37.877Z,15.91
2022-07-28T04:40:39.766Z,16.05
2022-07-28T04:43:06.336Z,16.50
2022-07-28T04:45:32.995Z,16.63
2022-07-28T04:47:59.577Z,16.72
2022-07-28T04:50:26.636Z,16.86
2022-07-28T04:52:54.311Z,16.84
2022-07-28T04:55:20.855Z,16.47
2022-07-28T04:57:48.111Z,15.80
2022-07-28T05:00:15.355Z,16.15
2022-07-28T05:02:43.223Z,16.63
2022-07-28T05:05:10.938Z,16.62
2022-07-28T05:07:41.115Z,16.17
2022-07-28T05:10:09.528Z,16.90
2022-07-28T05:12:36.423Z,16.91
2022-07-28T05:15:03.799Z,16.39
2022-07-28T05:17:30.305Z,16.61
2022-07-28T05:19:56.857Z,16.64
2022-07-28T05:22:23.315Z,16.10
2022-07-28T05:24:49.823Z,16.84
2022-07-28T05:27:17.535Z,16.75
2022-07-28T05:29:47.040Z,17.27
2022-07-28T05:32:16.524Z,16.68
2022-07-28T05:34:45.332Z,16.52
2022-07-28T05:37:12.078Z,16.54
2022-07-28T05:39:38.661Z,16.15
2022-07-28T05:42:05.303Z,17.14
2022-07-28T05:44:37.612Z,15.97
2022-07-28T05:47:04.722Z,17.03
2022-07-28T05:49:31.534Z,16.09
2022-07-28T05:51:58.047Z,15.82
2022-07-28T05:54:24.638Z,16.45
2022-07-28T05:56:52.680Z,16.15
2022-07-28T05:59:19.163Z,16.26
2022-07-28T06:01:46.064Z,17.12
2022-07-28T06:04:28.970Z,17.90
2022-07-28T06:06:55.991Z,18.07
2022-07-28T06:09:22.484Z,17.97
2022-07-28T06:11:50.501Z,17.52
2022-07-28T06:14:18.021Z,17.68
2022-07-28T06:16:45.062Z,16.56
2022-07-28T06:19:11.658Z,16.32
2022-07-28T06:21:38.224Z,18.05
2022-07-28T06:24:05.186Z,16.86
2022-07-28T06:26:31.648Z,17.45
2022-07-28T06:28:58.692Z,17.78
2022-07-28T06:31:25.199Z,18.24
2022-07-28T06:33:51.786Z,18.34
2022-07-28T06:36:18.306Z,18.18
2022-07-28T06:38:44.800Z,18.69
2022-07-28T06:41:11.270Z,18.68
2022-07-28T06:43:39.325Z,17.87
2022-07-28T06:46:06.257Z,18.06
2022-07-28T06:48:32.979Z,19.16
2022-07-28T06:50:59.703Z,18.13
2022-07-28T06:53:28.101Z,18.18
2022-07-28T06:56:00.668Z,19.08
2022-07-28T06:58:27.123Z,19.34
2022-07-28T07:00:53.744Z,19.30
2022-07-28T07:03:20.287Z,20.04
2022-07-28T07:05:49.058Z,18.70
2022-07-28T07:08:20.789Z,18.51
2022-07-28T07:10:47.324Z,18.73
2022-07-28T07:13:14.083Z,17.59
2022-07-28T07:15:40.829Z,19.31
2022-07-28T07:18:07.394Z,20.57
2022-07-28T07:20:33.964Z,20.61
2022-07-28T07:23:00.488Z,21.01
2022-07-28T07:25:27.151Z,21.76
2022-07-28T07:27:53.642Z,21.21
2022-07-28T07:30:20.421Z,20.91
2022-07-28T07:32:46.885Z,21.66
2022-07-28T07:35:13.456Z,23.00
2022-07-28T07:37:40.535Z,21.04
2022-07-28T07:40:07.786Z,20.04
2022-07-28T07:42:34.713Z,20.10
2022-07-28T07:45:01.555Z,19.74
2022-07-28T07:47:28.530Z,20.88
2022-07-28T07:49:55.118Z,19.31
2022-07-28T07:52:21.628Z,20.69
2022-07-28T07:54:48.260Z,20.48
2022-07-28T07:57:14.849Z,20.80
2022-07-28T07:59:41.669Z,21.63
2022-07-28T08:02:08.786Z,22.05
2022-07-28T08:04:37.124Z,20.81
2022-07-28T08:07:04.338Z,21.89
2022-07-28T08:09:32.404Z,22.73
2022-07-28T08:11:58.900Z,21.13
2022-07-28T08:14:25.457Z,21.82
2022-07-28T08:16:52.390Z,22.80
2022-07-28T08:19:21.597Z,21.89
2022-07-28T08:21:48.318Z,22.92
2022-07-28T08:24:27.600Z,22.96
2022-07-28T08:26:59.783Z,22.95
2022-07-28T08:29:26.293Z,21.57
2022-07-28T08:31:52.870Z,21.85
2022-07-28T08:34:31.276Z,22.19
2022-07-28T08:37:01.339Z,22.68
2022-07-28T08:39:28.070Z,20.99
2022-07-28T08:42:07.255Z,21.07
2022-07-28T08:44:45.806Z,21.33
2022-07-28T08:47:12.828Z,22.46
2022-07-28T08:49:45.102Z,22.60
2022-07-28T08:52:13.687Z,21.88
2022-07-28T08:54:45.944Z,22.38
2022-07-28T08:57:20.247Z,22.79
2022-07-28T08:59:49.058Z,22.69
2022-07-28T09:02:16.477Z,22.65
2022-07-28T09:04:46.154Z,22.93
2022-07-28T09:07:13.589Z,22.50
2022-07-28T09:09:40.325Z,21.57
2022-07-28T09:12:07.275Z,21.18
2022-07-28T09:14:34.373Z,21.46
2022-07-28T09:17:02.155Z,23.25
2022-07-28T09:19:34.333Z,23.01
2022-07-28T09:22:03.421Z,22.20
2022-07-28T09:24:32.986Z,22.99
2022-07-28T09:27:01.557Z,22.20
2022-07-28T09:29:28.042Z,21.52
2022-07-28T09:31:57.180Z,22.82
2022-07-28T09:34:24.181Z,22.38
2022-07-28T09:36:50.791Z,23.05
2022-07-28T09:39:30.175Z,21.79
2022-07-28T09:41:56.644Z,22.54
2022-07-28T09:44:24.641Z,22.44
2022-07-28T09:46:51.847Z,22.58
2022-07-28T09:49:19.012Z,22.37
2022-07-28T09:52:03.508Z,22.40
2022-07-28T09:54:30.083Z,23.62
2022-07-28T09:56:56.656Z,23.99
2022-07-28T09:59:24.021Z,24.33
2022-07-28T10:01:59.181Z,24.68
2022-07-28T10:04:36.501Z,24.48
2022-07-28T10:07:02.950Z,23.72
2022-07-28T10:09:29.446Z,23.17
2022-07-28T10:12:21.300Z,21.42
2022-07-28T10:14:51.641Z,21.56
2022-07-28T10:17:31.269Z,22.71
2022-07-28T10:19:59.783Z,23.21
2022-07-28T10:22:33.557Z,23.67
2022-07-28T10:25:08.040Z,22.35
2022-07-28T10:27:35.103Z,22.43
2022-07-28T10:30:04.245Z,22.86
2022-07-28T10:32:38.134Z,23.90
2022-07-28T10:35:17.637Z,23.50
2022-07-28T10:37:59.383Z,23.86
2022-07-28T10:40:31.716Z,23.53
2022-07-28T10:43:00.206Z,23.47
2022-07-28T10:45:47.977Z,22.84
2022-07-28T10:48:15.331Z,24.47
2022-07-28T10:50:42.429Z,24.35
2022-07-28T10:53:11.868Z,23.36
2022-07-28T10:56:02.483Z,24.04
2022-07-28T10:59:01.424Z,24.80
2022-07-28T11:01:54.135Z,23.73
2022-07-28T11:04:46.840Z,24.05
2022-07-28T11:07:18.343Z,24.53
2022-07-28T11:09:47.438Z,24.24
2022-07-28T11:12:17.321Z,24.49
2022-07-28T11:14:44.682Z,24.94
2022-07-28T11:17:11.422Z,24.67
2022-07-28T11:19:42.359Z,25.61
2022-07-28T11:22:29.090Z,24.53
2022-07-28T11:24:56.851Z,23.82
2022-07-28T11:27:59.710Z,24.53
2022-07-28T11:30:26.404Z,24.47
2022-07-28T11:32:55.667Z,25.62
2022-07-28T11:35:26.543Z,25.36
2022-07-28T11:38:02.155Z,25.74
2022-07-28T11:40:32.749Z,25.04
2022-07-28T11:43:36.374Z,25.47
2022-07-28T11:46:10.404Z,25.10
2022-07-28T11:48:40.691Z,24.40
2022-07-28T11:51:07.238Z,24.00
2022-07-28T11:53:51.087Z,24.36
2022-07-28T11:56:29.057Z,24.47
2022-07-28T11:59:02.945Z,24.71
2022-07-28T12:01:31.895Z,24.92
2022-07-28T12:03:59.975Z,25.59
2022-07-28T12:06:38.753Z,24.85
2022-07-28T12:09:08.078Z,23.60
2022-07-28T12:11:36.284Z,24.81
2022-07-28T12:14:14.574Z,24.67
2022-07-28T12:16:43.412Z,24.93
2022-07-28T12:19:11.489Z,24.91
2022-07-28T12:21:48.085Z,24.61
2022-07-28T12:24:18.730Z,24.15
2022-07-28T12:26:49.241Z,24.86
2022-07-28T12:29:17.054Z,25.29
2022-07-28T12:31:54.329Z,24.59
2022-07-28T12:34:21.932Z,24.67
2022-07-28T12:36:58.519Z,24.71
2022-07-28T12:39:25.947Z,23.54
2022-07-28T12:42:04.330Z,24.73
2022-07-28T12:44:40.807Z,25.15
2022-07-28T12:47:09.570Z,25.59
2022-07-28T12:49:37.326Z,23.84
2022-07-28T12:52:23.663Z,24.59
2022-07-28T12:54:56.393Z,25.11
2022-07-28T12:57:44.545Z,25.37
2022-07-28T13:00:15.377Z,25.13
2022-07-28T13:02:41.978Z,25.33
2022-07-28T13:05:08.837Z,26.02
2022-07-28T13:07:35.379Z,25.10
2022-07-28T13:10:04.068Z,25.98
2022-07-28T13:12:31.448Z,24.54
2022-07-28T13:14:59.858Z,24.68
2022-07-28T13:17:31.780Z,24.90
2022-07-28T13:20:13.148Z,25.10
2022-07-28T13:22:40.636Z,24.23
2022-07-28T13:25:08.062Z,24.53
2022-07-28T13:27:35.149Z,25.46
2022-07-28T13:30:02.125Z,25.44
2022-07-28T13:32:28.764Z,23.90
2022-07-28T13:34:56.972Z,25.32
2022-07-28T13:37:23.541Z,24.19
2022-07-28T13:39:54.419Z,24.96
2022-07-28T13:42:21.134Z,25.89
2022-07-28T13:44:50.308Z,26.10
2022-07-28T13:47:17.291Z,25.34
2022-07-28T13:49:43.997Z,26.30
2022-07-28T13:52:17.185Z,25.53
2022-07-28T13:54:59.891Z,25.99
2022-07-28T13:57:30.844Z,26.26
2022-07-28T13:59:57.444Z,25.77
2022-07-28T14:02:26.011Z,25.74
2022-07-28T14:04:52.766Z,24.85
2022-07-28T14:07:20.659Z,25.51
2022-07-28T14:09:48.067Z,25.61
2022-07-28T14:12:14.652Z,26.04
2022-07-28T14:14:47.909Z,25.39
2022-07-28T14:17:40.108Z,25.95
2022-07-28T14:20:02.405Z,25.99
2022-07-28T14:22:28.877Z,25.84
2022-07-28T14:24:55.326Z,25.86
2022-07-28T14:27:25.870Z,26.64
2022-07-28T14:29:55.267Z,26.01
2022-07-28T14:32:21.769Z,24.93
2022-07-28T14:34:48.333Z,26.00
2022-07-28T14:37:15.267Z,26.95
2022-07-28T14:39:42.041Z,27.26
2022-07-28T14:42:10.287Z,26.09
2022-07-28T14:44:37.014Z,26.47
2022-07-28T14:47:03.849Z,26.72
2022-07-28T14:49:30.433Z,26.30
2022-07-28T14:51:57.845Z,26.23
2022-07-28T14:54:24.395Z,25.08
2022-07-28T14:56:51.916Z,26.56
2022-07-28T14:59:18.377Z,26.80
2022-07-28T15:01:44.985Z,26.32
2022-07-28T15:04:15.650Z,25.93
2022-07-28T15:06:42.448Z,26.46
2022-07-28T15:09:09.425Z,26.84
2022-07-28T15:11:35.911Z,27.32
2022-07-28T15:14:02.502Z,27.19
2022-07-28T15:16:29.014Z,26.91
2022-07-28T15:18:55.561Z,27.08
2022-07-28T15:21:22.056Z,26.92
2022-07-28T15:23:48.596Z,27.02
2022-07-28T15:26:15.274Z,25.58
2022-07-28T15:28:41.802Z,24.98
2022-07-28T15:31:08.467Z,25.19
2022-07-28T15:33:43.867Z,25.73
2022-07-28T15:36:15.481Z,25.53
2022-07-28T15:38:41.998Z,25.22
2022-07-28T15:41:15.027Z,26.69
2022-07-28T15:43:41.979Z,26.93
2022-07-28T15:46:11.006Z,26.14
2022-07-28T15:48:39.176Z,25.96
2022-07-28T15:51:05.774Z,26.59
2022-07-28T15:53:32.360Z,25.93
2022-07-28T15:55:58.824Z,25.47
2022-07-28T15:58:28.334Z,25.90
2022-07-28T16:00:54.858Z,26.65
2022-07-28T16:03:22.713Z,26.11
2022-07-28T16:05:50.386Z,26.49
2022-07-28T16:08:18.548Z,26.46
2022-07-28T16:10:49.680Z,26.17
2022-07-28T16:13:22.721Z,26.77
2022-07-28T16:16:02.467Z,25.17
2022-07-28T16:18:29.278Z,26.08
2022-07-28T16:20:55.784Z,25.16
2022-07-28T16:23:22.269Z,26.46
2022-07-28T16:25:48.776Z,25.88
2022-07-28T16:28:15.931Z,25.13
2022-07-28T16:30:42.420Z,26.16
2022-07-28T16:33:09.074Z,26.61
2022-07-28T16:35:35.551Z,25.88
2022-07-28T16:38:03.633Z,25.33
2022-07-28T16:40:30.388Z,25.69
2022-07-28T16:42:59.846Z,26.19
2022-07-28T16:45:30.800Z,24.89
2022-07-28T16:47:58.107Z,25.62
2022-07-28T16:50:24.752Z,26.57
2022-07-28T16:52:52.334Z,25.79
2022-07-28T16:55:23.374Z,26.47
2022-07-28T16:57:50.861Z,25.66
2022-07-28T17:00:17.645Z,24.74
2022-07-28T17:02:44.461Z,25.97
2022-07-28T17:05:12.076Z,24.83
2022-07-28T17:07:45.155Z,25.84
2022-07-28T17:10:14.117Z,26.45
2022-07-28T17:12:40.584Z,26.39
2022-07-28T17:15:07.741Z,25.96
2022-07-28T17:17:48.510Z,24.94
2022-07-28T17:20:16.521Z,24.61
2022-07-28T17:22:43.206Z,24.17
2022-07-28T17:25:28.448Z,24.44
2022-07-28T17:27:56.355Z,25.03
2022-07-28T17:30:22.836Z,24.37
2022-07-28T17:32:49.314Z,24.91
2022-07-28T17:35:34.647Z,25.50
2022-07-28T17:38:03.595Z,24.54
2022-07-28T17:40:30.644Z,24.16
2022-07-28T17:42:57.195Z,24.13
2022-07-28T17:45:24.405Z,24.36
2022-07-28T17:47:51.161Z,24.13
2022-07-28T17:50:17.740Z,23.96
2022-07-28T17:52:45.166Z,24.92
2022-07-28T17:55:31.304Z,24.70
2022-07-28T17:58:10.013Z,25.67
2022-07-28T18:00:36.636Z,25.01
2022-07-28T18:03:03.217Z,24.32
2022-07-28T18:05:40.470Z,23.80
2022-07-28T18:08:07.794Z,24.46
2022-07-28T18:10:34.846Z,23.91
2022-07-28T18:13:01.499Z,24.15
2022-07-28T18:15:28.710Z,23.84
2022-07-28T18:17:57.430Z,24.45
2022-07-28T18:20:24.632Z,25.09
2022-07-28T18:22:51.268Z,24.61
2022-07-28T18:25:17.807Z,24.41
2022-07-28T18:27:44.315Z,24.55
2022-07-28T18:30:11.342Z,24.01
2022-07-28T18:32:37.827Z,23.60
2022-07-28T18:35:04.503Z,23.81
2022-07-28T18:37:31.125Z,23.90
2022-07-28T18:39:57.656Z,23.09
2022-07-28T18:42:24.254Z,23.35
2022-07-28T18:44:50.907Z,23.51
2022-07-28T18:47:17.427Z,23.34
2022-07-28T18:49:43.992Z,23.32
2022-07-28T18:52:10.465Z,23.06
2022-07-28T18:54:37.040Z,23.04
2022-07-28T18:57:03.617Z,22.98
2022-07-28T18:59:30.132Z,23.01
2022-07-28T19:01:56.714Z,22.90
2022-07-28T19:04:23.296Z,22.88
2022-07-28T19:06:50.404Z,22.66
2022-07-28T19:09:16.877Z,22.70
2022-07-28T19:11:46.331Z,22.38
2022-07-28T19:14:14.675Z,22.31
2022-07-28T19:16:41.609Z,22.34
2022-07-28T19:19:08.143Z,22.76
2022-07-28T19:21:34.954Z,22.11
2022-07-28T19:24:01.851Z,22.23
2022-07-28T19:26:29.532Z,22.32
2022-07-28T19:28:56.177Z,22.22
2022-07-28T19:31:22.921Z,21.83
2022-07-28T19:33:49.598Z,22.16
2022-07-28T19:36:16.168Z,22.56
2022-07-28T19:38:43.918Z,22.59
2022-07-28T19:41:12.873Z,22.59
2022-07-28T19:43:39.375Z,22.04
2022-07-28T19:46:06.105Z,21.88
2022-07-28T19:48:34.086Z,22.06
2022-07-28T19:51:00.902Z,22.38
2022-07-28T19:53:32.358Z,21.85
2022-07-28T19:56:01.231Z,21.54
2022-07-28T19:58:28.377Z,21.74
2022-07-28T20:00:56.506Z,21.86
2022-07-28T20:04:03.368Z,21.54
2022-07-28T20:06:10.033Z,21.53
2022-07-28T20:08:36.765Z,21.44
2022-07-28T20:11:03.435Z,21.43
2022-07-28T20:13:29.949Z,21.38
2022-07-28T20:15:56.422Z,20.88
2022-07-28T20:18:22.917Z,21.33
2022-07-28T20:20:49.556Z,21.10
2022-07-28T20:23:16.153Z,20.76
2022-07-28T20:25:45.247Z,21.66
2022-07-28T20:28:12.343Z,21.11
2022-07-28T20:30:40.114Z,21.26
2022-07-28T20:33:07.918Z,20.87
2022-07-28T20:35:34.517Z,20.50
2022-07-28T20:38:01.902Z,20.86
2022-07-28T20:40:28.396Z,20.55
2022-07-28T20:42:55.044Z,20.54
2022-07-28T20:45:22.855Z,20.53
2022-07-28T20:47:49.326Z,20.38
2022-07-28T20:50:16.032Z,20.29
2022-07-28T20:52:42.561Z,20.60
2022-07-28T20:55:11.229Z,20.63
2022-07-28T20:57:38.432Z,20.74
2022-07-28T21:00:06.096Z,21.09
2022-07-28T21:02:32.591Z,20.43
2022-07-28T21:04:59.061Z,20.44
2022-07-28T21:08:04.898Z,20.62
2022-07-28T21:10:12.078Z,20.01
2022-07-28T21:12:38.800Z,20.51
2022-07-28T21:15:06.438Z,20.32
2022-07-28T21:17:33.157Z,20.46
2022-07-28T21:20:02.310Z,19.62
2022-07-28T21:22:29.049Z,20.21
2022-07-28T21:24:55.948Z,20.10
2022-07-28T21:27:23.558Z,19.82
2022-07-28T21:32:17.095Z,19.86
2022-07-28T21:34:43.558Z,19.83
2022-07-28T21:37:11.527Z,20.13
2022-07-28T21:39:41.671Z,19.30
2022-07-28T21:42:09.353Z,20.17
2022-07-28T21:44:37.298Z,20.63
2022-07-28T21:47:04.421Z,19.67
2022-07-28T21:49:31.357Z,20.05
2022-07-28T21:51:58.136Z,20.47
2022-07-28T21:54:24.716Z,19.62
2022-07-28T21:56:51.155Z,20.26
2022-07-28T21:59:17.614Z,21.28
2022-07-28T22:01:44.117Z,21.60
2022-07-28T22:04:10.668Z,21.49
2022-07-28T22:06:37.108Z,21.59
2022-07-28T22:09:03.749Z,21.42
2022-07-28T22:11:30.606Z,21.03
2022-07-28T22:13:57.218Z,19.46
2022-07-28T22:16:23.790Z,19.82
2022-07-28T22:18:50.318Z,19.92
2022-07-28T22:21:16.859Z,19.58
2022-07-28T22:23:43.346Z,20.98
2022-07-28T22:26:09.785Z,20.32
2022-07-28T22:28:36.302Z,21.18
2022-07-28T22:31:08.880Z,21.43
2022-07-28T22:33:39.906Z,20.87
2022-07-28T22:36:08.636Z,21.21
2022-07-28T22:38:35.914Z,21.35
2022-07-28T22:41:02.436Z,21.31
2022-07-28T22:43:28.961Z,20.26
2022-07-28T22:45:55.434Z,20.42
2022-07-28T22:48:21.999Z,20.99
2022-07-28T22:50:48.458Z,20.95
2022-07-28T22:53:14.954Z,21.18
2022-07-28T22:55:41.463Z,20.76
2022-07-28T22:58:07.961Z,20.62
2022-07-28T23:00:36.503Z,20.85
2022-07-28T23:03:04.170Z,20.83
2022-07-28T23:05:30.863Z,20.71
2022-07-28T23:07:58.925Z,20.80
2022-07-28T23:10:26.394Z,21.11
2022-07-28T23:12:56.086Z,19.71
2022-07-28T23:15:24.994Z,20.16
2022-07-28T23:18:06.821Z,20.69
2022-07-28T23:20:33.294Z,19.77
2022-07-28T23:22:59.760Z,20.37
2022-07-28T23:25:26.205Z,19.87
2022-07-28T23:27:52.692Z,18.94
2022-07-28T23:30:19.309Z,18.56
2022-07-28T23:32:45.785Z,18.38
2022-07-28T23:35:12.297Z,19.13
2022-07-28T23:37:38.778Z,19.30
2022-07-28T23:40:05.827Z,19.02
2022-07-28T23:42:32.330Z,19.00
2022-07-28T23:44:58.830Z,19.98
2022-07-28T23:47:25.340Z,19.45
2022-07-28T23:49:51.811Z,19.94
2022-07-28T23:52:18.439Z,20.18
2022-07-28T23:54:44.932Z,19.59
2022-07-28T23:57:11.482Z,20.13
2022-07-28T23:59:37.942Z,19.77
